| time (UTC) | temp C | wind direction | speed KPH | gust KPH | rain 1hr cm | rain 24hr cm | rain mn cm | humidity % | barometer mb |
| 20260508085258 | 6 | 313 | 1.6 | 4.8 | 0.00 | 0.05 | 0.05 | 86 | 1015.0 |
| 20260508084737 | 6 | 331 | 1.6 | 6.4 | 0.00 | 0.05 | 0.05 | 86 | 1015.1 |
| 20260508084237 | 7 | 345 | 3.2 | 8.0 | 0.00 | 0.05 | 0.05 | 85 | 1015.1 |
| 20260508083737 | 7 | 299 | 3.2 | 9.7 | 0.00 | 0.05 | 0.05 | 85 | 1015.2 |
| 20260508083237 | 7 | 298 | 3.2 | 9.7 | 0.00 | 0.05 | 0.05 | 85 | 1015.2 |
| 20260508082737 | 7 | 305 | 3.2 | 9.7 | 0.00 | 0.05 | 0.05 | 84 | 1015.0 |
| 20260508082237 | 7 | 299 | 3.2 | 6.4 | 0.00 | 0.05 | 0.05 | 83 | 1015.0 |
| 20260508081737 | 7 | 294 | 1.6 | 6.4 | 0.00 | 0.05 | 0.05 | 83 | 1015.0 |
| 20260508081237 | 7 | 311 | 1.6 | 8.0 | 0.00 | 0.05 | 0.05 | 82 | 1015.1 |
| 20260508080737 | 7 | 297 | 1.6 | 8.0 | 0.00 | 0.05 | 0.05 | 82 | 1015.1 |
| 20260508080237 | 7 | 299 | 3.2 | 8.0 | 0.00 | 0.05 | 0.05 | 81 | 1015.1 |
| 20260508075737 | 7 | 307 | 1.6 | 8.0 | 0.03 | 0.05 | 0.05 | 80 | 1015.0 |
| 20260508075237 | 8 | 314 | 3.2 | 9.7 | 0.03 | 0.05 | 0.05 | 80 | 1014.9 |
| 20260508074737 | 8 | 324 | 1.6 | 6.4 | 0.05 | 0.05 | 0.05 | 79 | 1014.8 |
| 20260508074237 | 8 | 310 | 1.6 | 6.4 | 0.05 | 0.05 | 0.05 | 77 | 1014.8 |
| 20260508073737 | 8 | 306 | 3.2 | 6.4 | 0.05 | 0.05 | 0.05 | 76 | 1014.7 |
| 20260508073237 | 9 | 295 | 1.6 | 4.8 | 0.05 | 0.05 | 0.05 | 74 | 1014.6 |
| 20260508072737 | 9 | 327 | 1.6 | 3.2 | 0.05 | 0.05 | 0.05 | 73 | 1014.5 |
| 20260508072237 | 10 | 325 | 1.6 | 8.0 | 0.05 | 0.05 | 0.05 | 72 | 1014.3 |
| 20260508071737 | 10 | 329 | 1.6 | 8.0 | 0.05 | 0.05 | 0.05 | 71 | 1014.3 |
| 20260508071237 | 10 | 338 | 3.2 | 8.0 | 0.05 | 0.05 | 0.05 | 69 | 1014.3 |
| 20260508070737 | 10 | 300 | 1.6 | 4.8 | 0.05 | 0.05 | 0.05 | 69 | 1014.5 |
| 20260508070237 | 11 | 279 | 0.0 | 6.4 | 0.05 | 0.05 | 0.05 | 67 | 1014.4 |
| 20260508065737 | 11 | 314 | 3.2 | 24.1 | 0.03 | 0.03 | 0.03 | 67 | 1014.3 |
| 20260508065237 | 10 | 191 | 6.4 | 24.1 | 0.03 | 0.03 | 0.03 | 68 | 1014.1 |
| 20260508064758 | 10 | 307 | 9.7 | 24.1 | 0.00 | 0.00 | 0.00 | 76 | 1015.6 |
| 20260508064237 | 10 | 316 | 11.3 | 20.9 | 0.00 | 0.00 | 0.00 | 76 | 1015.9 |
| 20260508063737 | 10 | 323 | 9.7 | 20.9 | 0.00 | 0.00 | 0.00 | 75 | 1015.8 |
| 20260508063237 | 10 | 334 | 6.4 | 16.1 | 0.00 | 0.00 | 0.00 | 76 | 1015.5 |
| 20260508062737 | 10 | 350 | 8.0 | 16.1 | 0.00 | 0.00 | 0.00 | 76 | 1015.3 |
| 20260508062237 | 10 | 313 | 6.4 | 14.5 | 0.00 | 0.00 | 0.00 | 76 | 1015.2 |
| 20260508061758 | 10 | 337 | 4.8 | 9.7 | 0.00 | 0.00 | 0.00 | 76 | 1015.0 |
| 20260508061237 | 10 | 24 | 1.6 | 9.7 | 0.00 | 0.00 | 0.00 | 75 | 1014.4 |
| 20260508060737 | 10 | 61 | 4.8 | 9.7 | 0.00 | 0.00 | 0.00 | 74 | 1014.3 |
| 20260508060258 | 10 | 22 | 4.8 | 8.0 | 0.00 | 0.00 | 0.00 | 73 | 1014.4 |
| 20260508055737 | 10 | 23 | 4.8 | 8.0 | 0.00 | 0.00 | 0.00 | 72 | 1014.3 |
| 20260508055237 | 10 | 52 | 3.2 | 8.0 | 0.00 | 0.00 | 0.00 | 71 | 1014.3 |
| 20260508054737 | 10 | 38 | 3.2 | 11.3 | 0.00 | 0.00 | 0.00 | 70 | 1014.4 |
| 20260508054237 | 10 | 54 | 6.4 | 11.3 | 0.00 | 0.00 | 0.00 | 69 | 1014.3 |
| 20260508053737 | 11 | 50 | 4.8 | 11.3 | 0.00 | 0.00 | 0.00 | 68 | 1014.5 |
| 20260508053237 | 11 | 59 | 3.2 | 14.5 | 0.00 | 0.00 | 0.00 | 68 | 1014.5 |
| 20260508052737 | 11 | -1 | 4.8 | 14.5 | 0.00 | 0.00 | 0.00 | 67 | 1014.6 |
| 20260508052237 | 11 | 339 | 4.8 | 24.1 | 0.00 | 0.00 | 0.00 | 67 | 1014.7 |
| 20260508051737 | 11 | 27 | 8.0 | 24.1 | 0.00 | 0.00 | 0.00 | 66 | 1014.9 |
| 20260508051258 | 11 | 14 | 6.4 | 14.5 | 0.00 | 0.00 | 0.00 | 67 | 1015.1 |
| 20260508050737 | 11 | 352 | 6.4 | 11.3 | 0.00 | 0.00 | 0.00 | 68 | 1015.5 |
| 20260508050237 | 11 | 346 | 3.2 | 6.4 | 0.00 | 0.00 | 0.00 | 68 | 1015.6 |
| 20260508045737 | 11 | 31 | 3.2 | 6.4 | 0.00 | 0.00 | 0.00 | 68 | 1015.0 |
| 20260508045258 | 11 | 52 | 1.6 | 4.8 | 0.00 | 0.00 | 0.00 | 68 | 1014.8 |
| 20260508044737 | 11 | 128 | 0.0 | 3.2 | 0.00 | 0.00 | 0.00 | 67 | 1014.8 |
| 20260508044237 | 11 | 128 | 0.0 | 3.2 | 0.00 | 0.00 | 0.00 | 66 | 1014.7 |
| 20260508043758 | 11 | 136 | 0.0 | 4.8 | 0.00 | 0.00 | 0.00 | 65 | 1014.6 |
| 20260508043237 | 11 | 129 | 1.6 | 4.8 | 0.00 | 0.00 | 0.00 | 65 | 1014.6 |
| 20260508042737 | 11 | 103 | 0.0 | 3.2 | 0.00 | 0.00 | 0.00 | 64 | 1014.7 |
| 20260508042237 | 11 | 103 | 0.0 | 3.2 | 0.00 | 0.00 | 0.00 | 63 | 1014.7 |
| 20260508041737 | 11 | 103 | 0.0 | 3.2 | 0.00 | 0.00 | 0.00 | 63 | 1014.6 |
| 20260508041237 | 11 | 103 | 0.0 | 3.2 | 0.00 | 0.00 | 0.00 | 62 | 1014.6 |
| 20260508040737 | 12 | 103 | 0.0 | 3.2 | 0.00 | 0.00 | 0.00 | 62 | 1014.7 |
| 20260508040237 | 12 | 103 | 0.0 | 4.8 | 0.00 | 0.00 | 0.00 | 61 | 1014.9 |
| 20260508035737 | 12 | 103 | 0.0 | 4.8 | 0.00 | 0.00 | 0.00 | 60 | 1014.8 |
| 20260508035258 | 12 | 91 | 0.0 | 6.4 | 0.00 | 0.00 | 0.00 | 60 | 1014.7 |
| 20260508034737 | 12 | 54 | 1.6 | 6.4 | 0.00 | 0.00 | 0.00 | 59 | 1014.8 |
| 20260508034258 | 12 | 29 | 3.2 | 6.4 | 0.00 | 0.00 | 0.00 | 59 | 1014.9 |
| 20260508033737 | 12 | 17 | 1.6 | 8.0 | 0.00 | 0.00 | 0.00 | 58 | 1015.0 |
| 20260508033237 | 12 | 10 | 3.2 | 11.3 | 0.00 | 0.00 | 0.00 | 58 | 1014.9 |
| 20260508032737 | 13 | 19 | 4.8 | 11.3 | 0.00 | 0.00 | 0.00 | 56 | 1015.0 |
| 20260508032237 | 13 | 6 | 3.2 | 8.0 | 0.00 | 0.00 | 0.00 | 55 | 1014.8 |
| 20260508031737 | 13 | 18 | 1.6 | 6.4 | 0.00 | 0.00 | 0.00 | 53 | 1014.7 |
| 20260508031237 | 13 | 31 | 3.2 | 11.3 | 0.00 | 0.00 | 0.00 | 53 | 1014.5 |
| 20260508030737 | 13 | 16 | 4.8 | 11.3 | 0.00 | 0.00 | 0.00 | 51 | 1014.3 |
| 20260508030237 | 13 | 26 | 1.6 | 6.4 | 0.00 | 0.00 | 0.00 | 51 | 1014.2 |
| 20260508025758 | 13 | 93 | 0.0 | 4.8 | 0.00 | 0.00 | 0.00 | 50 | 1013.6 |
| 20260508025237 | 13 | 36 | 0.0 | 3.2 | 0.00 | 0.00 | 0.00 | 48 | 1013.5 |
| 20260508024737 | 13 | 36 | 0.0 | 3.2 | 0.00 | 0.00 | 0.00 | 48 | 1013.4 |
| 20260508024237 | 13 | 36 | 0.0 | 4.8 | 0.00 | 0.00 | 0.00 | 49 | 1013.4 |
| 20260508023737 | 14 | 32 | 1.6 | 9.7 | 0.00 | 0.00 | 0.00 | 48 | 1013.3 |
| 20260508023237 | 14 | 4 | 4.8 | 9.7 | 0.00 | 0.00 | 0.00 | 47 | 1013.3 |
| 20260508022737 | 14 | 339 | 3.2 | 11.3 | 0.00 | 0.00 | 0.00 | 48 | 1013.3 |
| 20260508022237 | 14 | 4 | 4.8 | 11.3 | 0.00 | 0.00 | 0.00 | 48 | 1013.2 |
| 20260508021737 | 14 | 39 | 4.8 | 11.3 | 0.00 | 0.00 | 0.00 | 50 | 1013.0 |
| 20260508021237 | 14 | 48 | 6.4 | 11.3 | 0.00 | 0.00 | 0.00 | 50 | 1012.9 |
| 20260508020737 | 14 | 47 | 6.4 | 11.3 | 0.00 | 0.00 | 0.00 | 49 | 1013.0 |
| 20260508020237 | 14 | 28 | 4.8 | 11.3 | 0.00 | 0.00 | 0.00 | 49 | 1013.0 |
| 20260508015758 | 14 | 16 | 4.8 | 14.5 | 0.00 | 0.00 | 0.00 | 49 | 1013.1 |
| 20260508015237 | 15 | 12 | 4.8 | 14.5 | 0.00 | 0.00 | 0.00 | 48 | 1013.2 |
| 20260508014737 | 15 | 16 | 8.0 | 17.7 | 0.00 | 0.00 | 0.00 | 47 | 1013.2 |
| 20260508014237 | 15 | 15 | 8.0 | 17.7 | 0.00 | 0.00 | 0.00 | 46 | 1013.1 |
| 20260508013737 | 15 | 352 | 8.0 | 20.9 | 0.00 | 0.00 | 0.00 | 45 | 1013.0 |
| 20260508013237 | 15 | 4 | 9.7 | 20.9 | 0.00 | 0.00 | 0.00 | 44 | 1012.8 |
| 20260508012758 | 16 | -1 | 9.7 | 17.7 | 0.00 | 0.00 | 0.00 | 42 | 1012.6 |
| 20260508012237 | 16 | 16 | 9.7 | 22.5 | 0.00 | 0.00 | 0.00 | 38 | 1012.6 |
| 20260508011737 | 16 | 16 | 4.8 | 9.7 | 0.00 | 0.00 | 0.00 | 39 | 1012.4 |
| 20260508011237 | 17 | 12 | 1.6 | 4.8 | 0.00 | 0.00 | 0.00 | 37 | 1012.3 |
| 20260508010737 | 17 | 5 | 1.6 | 4.8 | 0.00 | 0.00 | 0.00 | 36 | 1012.2 |
| 20260508010237 | 17 | -1 | 1.6 | 4.8 | 0.00 | 0.00 | 0.00 | 35 | 1012.1 |
| 20260508005737 | 17 | 355 | 1.6 | 4.8 | 0.00 | 0.00 | 0.00 | 34 | 1012.0 |
| 20260508005237 | 17 | 360 | 1.6 | 9.7 | 0.00 | 0.00 | 0.00 | 33 | 1012.0 |
| 20260508004737 | 17 | 345 | 3.2 | 9.7 | 0.00 | 0.00 | 0.00 | 32 | 1011.9 |
| 20260508004237 | 18 | 345 | 1.6 | 6.4 | 0.00 | 0.00 | 0.00 | 32 | 1012.0 |
| 20260508003737 | 18 | 316 | 1.6 | 8.0 | 0.00 | 0.00 | 0.00 | 31 | 1011.8 |
| 20260508003237 | 18 | 332 | 3.2 | 8.0 | 0.00 | 0.00 | 0.00 | 30 | 1011.8 |
| 20260508002737 | 18 | 345 | 1.6 | 12.9 | 0.00 | 0.00 | 0.00 | 30 | 1011.8 |
| 20260508002237 | 18 | 341 | 6.4 | 16.1 | 0.00 | 0.00 | 0.00 | 29 | 1011.8 |
| 20260508001737 | 18 | 297 | 6.4 | 16.1 | 0.00 | 0.00 | 0.00 | 26 | 1011.9 |
| 20260508001237 | 18 | 289 | 6.4 | 12.9 | 0.00 | 0.00 | 0.00 | 26 | 1011.8 |
| 20260508000737 | 18 | 309 | 4.8 | 17.7 | 0.00 | 0.00 | 0.00 | 26 | 1011.8 |
| 20260508000237 | 19 | 317 | 6.4 | 19.3 | 0.00 | 0.00 | 0.00 | 25 | 1011.9 |
| 20260507235737 | 19 | 319 | 9.7 | 20.9 | 0.00 | 0.00 | 0.00 | 24 | 1011.9 |
| 20260507235237 | 20 | 292 | 6.4 | 20.9 | 0.00 | 0.00 | 0.00 | 23 | 1011.8 |
| 20260507234737 | 20 | 314 | 8.0 | 19.3 | 0.00 | 0.00 | 0.00 | 23 | 1011.7 |
| 20260507234237 | 21 | 291 | 6.4 | 19.3 | 0.00 | 0.00 | 0.00 | 22 | 1011.8 |
| 20260507233737 | 21 | 279 | 8.0 | 16.1 | 0.00 | 0.00 | 0.00 | 23 | 1011.9 |
| 20260507233237 | 21 | 310 | 6.4 | 17.7 | 0.00 | 0.00 | 0.00 | 24 | 1011.8 |
| 20260507232737 | 21 | 294 | 9.7 | 17.7 | 0.00 | 0.00 | 0.00 | 23 | 1011.7 |
| 20260507232237 | 21 | 287 | 8.0 | 14.5 | 0.00 | 0.00 | 0.00 | 23 | 1011.8 |
| 20260507231737 | 21 | 263 | 6.4 | 17.7 | 0.00 | 0.00 | 0.00 | 24 | 1011.8 |
| 20260507231237 | 21 | 293 | 8.0 | 24.1 | 0.00 | 0.00 | 0.00 | 22 | 1011.9 |
| 20260507230737 | 21 | 309 | 9.7 | 24.1 | 0.00 | 0.00 | 0.00 | 25 | 1011.8 |
| 20260507230237 | 21 | 312 | 6.4 | 17.7 | 0.00 | 0.00 | 0.00 | 25 | 1011.8 |
| 20260507225737 | 21 | 296 | 9.7 | 19.3 | 0.00 | 0.00 | 0.00 | 23 | 1011.9 |
| 20260507225237 | 21 | 313 | 6.4 | 22.5 | 0.00 | 0.00 | 0.00 | 25 | 1011.9 |
| 20260507224737 | 21 | 297 | 11.3 | 22.5 | 0.00 | 0.00 | 0.00 | 24 | 1011.8 |
| 20260507224237 | 21 | 293 | 8.0 | 17.7 | 0.00 | 0.00 | 0.00 | 24 | 1011.8 |
| 20260507223737 | 21 | 270 | 6.4 | 16.1 | 0.00 | 0.00 | 0.00 | 24 | 1011.7 |
| 20260507223237 | 21 | 316 | 9.7 | 22.5 | 0.00 | 0.00 | 0.00 | 24 | 1011.8 |
| 20260507222737 | 20 | 286 | 4.8 | 20.9 | 0.00 | 0.00 | 0.00 | 25 | 1011.7 |
| 20260507222237 | 20 | 312 | 11.3 | 20.9 | 0.00 | 0.00 | 0.00 | 26 | 1011.8 |
| 20260507221737 | 20 | 313 | 8.0 | 17.7 | 0.00 | 0.00 | 0.00 | 27 | 1011.8 |
| 20260507221237 | 20 | 295 | 8.0 | 19.3 | 0.00 | 0.00 | 0.00 | 25 | 1012.0 |
| 20260507220758 | 21 | 320 | 8.0 | 20.9 | 0.00 | 0.00 | 0.00 | 25 | 1012.1 |
| 20260507220237 | 21 | 303 | 8.0 | 20.9 | 0.00 | 0.00 | 0.00 | 25 | 1012.1 |
| 20260507215737 | 20 | 286 | 8.0 | 27.4 | 0.00 | 0.00 | 0.00 | 24 | 1012.2 |
| 20260507215237 | 20 | 324 | 9.7 | 27.4 | 0.00 | 0.00 | 0.00 | 25 | 1012.3 |
| 20260507214737 | 20 | 309 | 9.7 | 20.9 | 0.00 | 0.00 | 0.00 | 25 | 1012.4 |
| 20260507214237 | 21 | 312 | 11.3 | 20.9 | 0.00 | 0.00 | 0.00 | 24 | 1012.4 |
| 20260507213737 | 20 | 305 | 9.7 | 20.9 | 0.00 | 0.00 | 0.00 | 26 | 1012.4 |
| 20260507213237 | 20 | 326 | 11.3 | 25.7 | 0.00 | 0.00 | 0.00 | 26 | 1012.6 |
| 20260507212737 | 20 | 306 | 9.7 | 25.7 | 0.00 | 0.00 | 0.00 | 28 | 1012.6 |
| 20260507212237 | 20 | 329 | 11.3 | 20.9 | 0.00 | 0.00 | 0.00 | 26 | 1012.7 |
| 20260507211737 | 20 | 284 | 8.0 | 25.7 | 0.00 | 0.00 | 0.00 | 27 | 1012.8 |
| 20260507211258 | 20 | 336 | 12.9 | 25.7 | 0.00 | 0.00 | 0.00 | 26 | 1012.8 |
| 20260507210758 | 20 | 312 | 12.9 | 25.7 | 0.00 | 0.00 | 0.00 | 25 | 1012.8 |
| 20260507210237 | 20 | 335 | 11.3 | 25.7 | 0.00 | 0.00 | 0.00 | 26 | 1012.8 |
| 20260507205737 | 20 | 303 | 9.7 | 22.5 | 0.00 | 0.00 | 0.00 | 26 | 1012.9 |
| 20260507205237 | 20 | 301 | 9.7 | 22.5 | 0.00 | 0.00 | 0.00 | 27 | 1012.8 |
| 20260507204737 | 20 | 322 | 9.7 | 17.7 | 0.00 | 0.00 | 0.00 | 26 | 1013.0 |
| 20260507204237 | 20 | 280 | 8.0 | 20.9 | 0.00 | 0.00 | 0.00 | 26 | 1013.0 |
| 20260507203737 | 20 | 334 | 11.3 | 20.9 | 0.00 | 0.00 | 0.00 | 26 | 1013.1 |
| 20260507203237 | 20 | 289 | 11.3 | 29.0 | 0.00 | 0.00 | 0.00 | 27 | 1013.2 |
| 20260507202737 | 20 | 292 | 8.0 | 29.0 | 0.00 | 0.00 | 0.00 | 28 | 1013.2 |
| 20260507202237 | 20 | 288 | 6.4 | 19.3 | 0.00 | 0.00 | 0.00 | 27 | 1013.3 |
| 20260507201737 | 20 | -1 | 6.4 | 19.3 | 0.00 | 0.00 | 0.00 | 27 | 1013.4 |
| 20260507201237 | 20 | 300 | 9.7 | 22.5 | 0.00 | 0.00 | 0.00 | 27 | 1013.5 |
| 20260507200737 | 20 | 271 | 9.7 | 25.7 | 0.00 | 0.00 | 0.00 | 26 | 1013.5 |
| 20260507200237 | 20 | 304 | 11.3 | 25.7 | 0.00 | 0.00 | 0.00 | 27 | 1013.5 |
| 20260507195737 | 20 | 292 | 9.7 | 24.1 | 0.00 | 0.00 | 0.00 | 26 | 1013.5 |
| 20260507195258 | 20 | 296 | 9.7 | 24.1 | 0.00 | 0.00 | 0.00 | 28 | 1013.6 |
| 20260507194737 | 20 | 270 | 12.9 | 24.1 | 0.00 | 0.00 | 0.00 | 26 | 1013.6 |
| 20260507194237 | 20 | 221 | 9.7 | 24.1 | 0.00 | 0.00 | 0.00 | 27 | 1013.6 |
| 20260507193737 | 20 | 297 | 8.0 | 20.9 | 0.00 | 0.00 | 0.00 | 29 | 1013.6 |
| 20260507193237 | 20 | 262 | 9.7 | 24.1 | 0.00 | 0.00 | 0.00 | 29 | 1013.8 |
| 20260507192737 | 20 | 269 | 9.7 | 25.7 | 0.00 | 0.00 | 0.00 | 30 | 1013.9 |
| 20260507192237 | 20 | 288 | 11.3 | 25.7 | 0.00 | 0.00 | 0.00 | 29 | 1013.9 |
| 20260507191737 | 20 | 257 | 8.0 | 20.9 | 0.00 | 0.00 | 0.00 | 29 | 1014.1 |
| 20260507191237 | 19 | 295 | 9.7 | 22.5 | 0.00 | 0.00 | 0.00 | 30 | 1014.0 |
| 20260507190737 | 19 | 300 | 9.7 | 25.7 | 0.00 | 0.00 | 0.00 | 31 | 1014.0 |
| 20260507190237 | 19 | 316 | 11.3 | 25.7 | 0.00 | 0.00 | 0.00 | 30 | 1014.0 |
| 20260507185758 | 19 | 262 | 6.4 | 19.3 | 0.00 | 0.00 | 0.00 | 29 | 1014.1 |
| 20260507185237 | 20 | 245 | 6.4 | 19.3 | 0.00 | 0.00 | 0.00 | 28 | 1014.1 |
| 20260507184737 | 20 | 299 | 6.4 | 19.3 | 0.00 | 0.00 | 0.00 | 31 | 1014.3 |
| 20260507184237 | 20 | 298 | 6.4 | 14.5 | 0.00 | 0.00 | 0.00 | 30 | 1014.1 |
| 20260507183737 | 19 | 302 | 4.8 | 20.9 | 0.00 | 0.00 | 0.00 | 30 | 1014.2 |
| 20260507183258 | 19 | 268 | 4.8 | 17.7 | 0.00 | 0.00 | 0.00 | 28 | 1014.3 |
| 20260507182737 | 19 | 269 | 8.0 | 17.7 | 0.00 | 0.00 | 0.00 | 29 | 1014.4 |
| 20260507182237 | 19 | 274 | 4.8 | 14.5 | 0.00 | 0.00 | 0.00 | 29 | 1014.5 |
| 20260507181737 | 19 | 274 | 4.8 | 17.7 | 0.00 | 0.00 | 0.00 | 29 | 1014.5 |
| 20260507181258 | 19 | 249 | 4.8 | 17.7 | 0.00 | 0.00 | 0.00 | 30 | 1014.5 |
| 20260507180737 | 19 | 271 | 3.2 | 12.9 | 0.00 | 0.00 | 0.00 | 32 | 1014.5 |
| 20260507180237 | 19 | 284 | 4.8 | 14.5 | 0.00 | 0.00 | 0.00 | 30 | 1014.6 |
| 20260507175737 | 18 | 303 | 6.4 | 14.5 | 0.00 | 0.00 | 0.00 | 31 | 1014.6 |
| 20260507175237 | 18 | 292 | 4.8 | 12.9 | 0.00 | 0.00 | 0.00 | 28 | 1014.6 |
| 20260507174737 | 18 | 303 | 4.8 | 14.5 | 0.00 | 0.00 | 0.00 | 32 | 1014.7 |
| 20260507174237 | 18 | 274 | 4.8 | 16.1 | 0.00 | 0.00 | 0.00 | 31 | 1014.8 |
| 20260507173737 | 17 | 300 | 6.4 | 14.5 | 0.00 | 0.00 | 0.00 | 34 | 1014.9 |
| 20260507173237 | 17 | 292 | 6.4 | 17.7 | 0.00 | 0.00 | 0.00 | 32 | 1015.0 |
| 20260507172758 | 17 | 284 | 6.4 | 17.7 | 0.00 | 0.00 | 0.00 | 34 | 1015.0 |
| 20260507172237 | 17 | 258 | 4.8 | 19.3 | 0.00 | 0.00 | 0.00 | 36 | 1015.1 |
| 20260507171737 | 17 | 266 | 4.8 | 14.5 | 0.00 | 0.00 | 0.00 | 34 | 1015.2 |
| 20260507171237 | 17 | 267 | 4.8 | 16.1 | 0.00 | 0.00 | 0.00 | 35 | 1015.3 |
| 20260507170758 | 17 | 248 | 6.4 | 16.1 | 0.00 | 0.00 | 0.00 | 34 | 1015.3 |
| 20260507170237 | 17 | 317 | 4.8 | 14.5 | 0.00 | 0.00 | 0.00 | 34 | 1015.3 |
| 20260507165737 | 17 | 284 | 3.2 | 14.5 | 0.00 | 0.00 | 0.00 | 32 | 1015.4 |
| 20260507165237 | 17 | 249 | 4.8 | 11.3 | 0.00 | 0.00 | 0.00 | 32 | 1015.5 |
| 20260507164758 | 17 | 288 | 3.2 | 11.3 | 0.00 | 0.00 | 0.00 | 31 | 1015.4 |
| 20260507164258 | 17 | 274 | 3.2 | 11.3 | 0.00 | 0.00 | 0.00 | 32 | 1015.4 |
| 20260507163737 | 17 | 285 | 3.2 | 14.5 | 0.00 | 0.00 | 0.00 | 32 | 1015.3 |
| 20260507163237 | 17 | 274 | 4.8 | 14.5 | 0.00 | 0.00 | 0.00 | 34 | 1015.2 |
| 20260507162737 | 16 | 249 | 4.8 | 16.1 | 0.00 | 0.00 | 0.00 | 34 | 1015.2 |
| 20260507162237 | 16 | 260 | 6.4 | 16.1 | 0.00 | 0.00 | 0.00 | 35 | 1015.2 |
| 20260507161737 | 16 | 239 | 6.4 | 14.5 | 0.00 | 0.00 | 0.00 | 35 | 1015.2 |
| 20260507161237 | 16 | 263 | 4.8 | 19.3 | 0.00 | 0.00 | 0.00 | 37 | 1015.4 |
| 20260507160737 | 15 | 240 | 8.0 | 19.3 | 0.00 | 0.00 | 0.00 | 36 | 1015.5 |
| 20260507160237 | 15 | 260 | 4.8 | 16.1 | 0.00 | 0.00 | 0.00 | 39 | 1015.6 |
| 20260507155737 | 15 | 194 | 6.4 | 16.1 | 0.00 | 0.00 | 0.00 | 38 | 1015.7 |
| 20260507155237 | 15 | 281 | 6.4 | 17.7 | 0.00 | 0.00 | 0.00 | 38 | 1015.7 |
| 20260507154737 | 15 | 261 | 6.4 | 17.7 | 0.00 | 0.00 | 0.00 | 37 | 1015.8 |
| 20260507154237 | 14 | 275 | 6.4 | 14.5 | 0.00 | 0.00 | 0.00 | 39 | 1015.8 |
| 20260507153737 | 14 | 242 | 4.8 | 16.1 | 0.00 | 0.00 | 0.00 | 40 | 1015.8 |
| 20260507153237 | 14 | 229 | 6.4 | 16.1 | 0.00 | 0.00 | 0.00 | 38 | 1015.9 |
| 20260507152737 | 13 | 224 | 6.4 | 20.9 | 0.00 | 0.00 | 0.00 | 39 | 1015.8 |
| 20260507152237 | 13 | 269 | 6.4 | 20.9 | 0.00 | 0.00 | 0.00 | 38 | 1015.8 |
| 20260507151737 | 13 | 257 | 6.4 | 14.5 | 0.00 | 0.00 | 0.00 | 40 | 1015.8 |
| 20260507151237 | 13 | 278 | 6.4 | 19.3 | 0.00 | 0.00 | 0.00 | 41 | 1015.8 |
| 20260507150737 | 13 | 253 | 4.8 | 19.3 | 0.00 | 0.00 | 0.00 | 42 | 1015.7 |
| 20260507150237 | 13 | 236 | 6.4 | 17.7 | 0.00 | 0.00 | 0.00 | 41 | 1015.7 |
| 20260507145737 | 12 | 270 | 6.4 | 17.7 | 0.00 | 0.00 | 0.00 | 42 | 1015.7 |
| 20260507145237 | 12 | 265 | 4.8 | 20.9 | 0.00 | 0.00 | 0.00 | 43 | 1015.8 |
| 20260507144737 | 12 | 243 | 6.4 | 22.5 | 0.00 | 0.00 | 0.00 | 43 | 1015.7 |
| 20260507144237 | 12 | 251 | 8.0 | 22.5 | 0.00 | 0.00 | 0.00 | 43 | 1015.8 |
| 20260507143758 | 11 | 250 | 4.8 | 22.5 | 0.00 | 0.00 | 0.00 | 44 | 1015.8 |
| 20260507143258 | 11 | 246 | 4.8 | 16.1 | 0.00 | 0.00 | 0.00 | 45 | 1015.9 |
| 20260507142737 | 11 | 219 | 6.4 | 20.9 | 0.00 | 0.00 | 0.00 | 44 | 1015.8 |
| 20260507142237 | 11 | 244 | 8.0 | 20.9 | 0.00 | 0.00 | 0.00 | 44 | 1015.7 |
| 20260507141737 | 10 | 264 | 6.4 | 19.3 | 0.00 | 0.00 | 0.00 | 44 | 1015.7 |
| 20260507141237 | 10 | 250 | 9.7 | 19.3 | 0.00 | 0.00 | 0.00 | 44 | 1015.7 |
| 20260507140737 | 10 | 245 | 4.8 | 22.5 | 0.00 | 0.00 | 0.00 | 44 | 1015.7 |
| 20260507140237 | 10 | 215 | 8.0 | 22.5 | 0.00 | 0.00 | 0.00 | 44 | 1015.6 |
| 20260507135737 | 10 | 264 | 6.4 | 16.1 | 0.00 | 0.00 | 0.00 | 45 | 1015.7 |
| 20260507135258 | 10 | 283 | 4.8 | 16.1 | 0.00 | 0.00 | 0.00 | 45 | 1015.7 |
| 20260507134737 | 9 | 262 | 6.4 | 16.1 | 0.00 | 0.00 | 0.00 | 47 | 1015.6 |
| 20260507134237 | 9 | 222 | 6.4 | 14.5 | 0.00 | 0.00 | 0.00 | 47 | 1015.5 |
| 20260507133737 | 8 | 249 | 6.4 | 16.1 | 0.00 | 0.00 | 0.00 | 48 | 1015.5 |
| 20260507133237 | 8 | 250 | 4.8 | 16.1 | 0.00 | 0.00 | 0.00 | 47 | 1015.5 |
| 20260507132737 | 8 | 244 | 6.4 | 14.5 | 0.00 | 0.00 | 0.00 | 48 | 1015.5 |
| 20260507132237 | 8 | 266 | 4.8 | 12.9 | 0.00 | 0.00 | 0.00 | 48 | 1015.4 |
| 20260507131737 | 7 | 246 | 4.8 | 11.3 | 0.00 | 0.00 | 0.00 | 49 | 1015.4 |
| 20260507131237 | 7 | 268 | 4.8 | 12.9 | 0.00 | 0.00 | 0.00 | 49 | 1015.4 |
| 20260507130737 | 7 | 222 | 6.4 | 17.7 | 0.00 | 0.00 | 0.00 | 50 | 1015.3 |
| 20260507130237 | 7 | 275 | 3.2 | 12.9 | 0.00 | 0.00 | 0.00 | 51 | 1015.2 |
| 20260507125737 | 6 | 227 | 4.8 | 12.9 | 0.00 | 0.00 | 0.00 | 51 | 1015.1 |
| 20260507125237 | 6 | 239 | 4.8 | 12.9 | 0.00 | 0.00 | 0.00 | 51 | 1015.1 |
| 20260507124737 | 6 | 217 | 4.8 | 12.9 | 0.00 | 0.00 | 0.00 | 51 | 1015.1 |
| 20260507124237 | 6 | 201 | 3.2 | 9.7 | 0.00 | 0.00 | 0.00 | 51 | 1015.1 |
| 20260507123758 | 5 | 224 | 4.8 | 11.3 | 0.00 | 0.00 | 0.00 | 52 | 1015.1 |
| 20260507123237 | 5 | 243 | 4.8 | 11.3 | 0.00 | 0.00 | 0.00 | 52 | 1015.0 |
| 20260507122737 | 5 | 280 | 3.2 | 11.3 | 0.00 | 0.00 | 0.00 | 53 | 1014.9 |
| 20260507122237 | 5 | 240 | 4.8 | 11.3 | 0.00 | 0.00 | 0.00 | 53 | 1014.9 |
| 20260507121737 | 5 | 219 | 4.8 | 9.7 | 0.00 | 0.00 | 0.00 | 54 | 1014.8 |
| 20260507121237 | 4 | 247 | 1.6 | 8.0 | 0.00 | 0.00 | 0.00 | 55 | 1014.9 |
| 20260507120737 | 4 | 231 | 4.8 | 11.3 | 0.00 | 0.00 | 0.00 | 55 | 1014.9 |
| 20260507120237 | 4 | 236 | 3.2 | 11.3 | 0.00 | 0.00 | 0.00 | 55 | 1014.9 |
| 20260507115737 | 4 | 234 | 3.2 | 8.0 | 0.00 | 0.00 | 0.00 | 55 | 1014.9 |
| 20260507115237 | 4 | 250 | 3.2 | 8.0 | 0.00 | 0.00 | 0.00 | 55 | 1014.7 |
| 20260507114737 | 4 | 240 | 1.6 | 9.7 | 0.00 | 0.00 | 0.00 | 55 | 1014.8 |
| 20260507114237 | 4 | 223 | 3.2 | 9.7 | 0.00 | 0.00 | 0.00 | 56 | 1014.8 |
| 20260507113737 | 4 | 220 | 4.8 | 9.7 | 0.00 | 0.00 | 0.00 | 56 | 1014.7 |
| 20260507113237 | 4 | 248 | 3.2 | 9.7 | 0.00 | 0.00 | 0.00 | 55 | 1014.7 |
| 20260507112737 | 4 | 255 | 3.2 | 9.7 | 0.00 | 0.00 | 0.00 | 55 | 1014.6 |
| 20260507112237 | 4 | 263 | 3.2 | 9.7 | 0.00 | 0.00 | 0.00 | 56 | 1014.7 |
| 20260507111737 | 4 | 256 | 4.8 | 9.7 | 0.00 | 0.00 | 0.00 | 55 | 1014.6 |
| 20260507111237 | 4 | 271 | 3.2 | 12.9 | 0.00 | 0.00 | 0.00 | 55 | 1014.6 |
| 20260507110737 | 3 | 236 | 4.8 | 12.9 | 0.00 | 0.00 | 0.00 | 56 | 1014.5 |
| 20260507110237 | 3 | 210 | 4.8 | 14.5 | 0.00 | 0.00 | 0.00 | 56 | 1014.7 |
| 20260507105737 | 3 | 218 | 3.2 | 14.5 | 0.00 | 0.00 | 0.00 | 57 | 1014.7 |
| 20260507105237 | 3 | 222 | 4.8 | 12.9 | 0.00 | 0.00 | 0.00 | 57 | 1014.8 |
| 20260507104737 | 3 | 238 | 4.8 | 11.3 | 0.00 | 0.00 | 0.00 | 57 | 1014.8 |
| 20260507104258 | 3 | 247 | 1.6 | 11.3 | 0.00 | 0.00 | 0.00 | 57 | 1014.9 |
| 20260507103758 | 3 | 240 | 3.2 | 12.9 | 0.00 | 0.00 | 0.00 | 57 | 1014.9 |
| 20260507103237 | 3 | 243 | 4.8 | 12.9 | 0.00 | 0.00 | 0.00 | 57 | 1014.9 |
| 20260507102737 | 3 | 264 | 3.2 | 9.7 | 0.00 | 0.00 | 0.00 | 57 | 1014.9 |
| 20260507102237 | 3 | 254 | 3.2 | 11.3 | 0.00 | 0.00 | 0.00 | 57 | 1015.0 |
| 20260507101758 | 3 | 237 | 3.2 | 11.3 | 0.00 | 0.00 | 0.00 | 58 | 1015.1 |
| 20260507101258 | 3 | 247 | 3.2 | 9.7 | 0.00 | 0.00 | 0.00 | 58 | 1015.1 |
| 20260507100737 | 3 | 259 | 1.6 | 9.7 | 0.00 | 0.00 | 0.00 | 58 | 1015.2 |
| 20260507100237 | 3 | 255 | 3.2 | 9.7 | 0.00 | 0.00 | 0.00 | 58 | 1015.3 |
| 20260507095758 | 3 | 240 | 3.2 | 9.7 | 0.00 | 0.00 | 0.00 | 58 | 1015.2 |
| 20260507095237 | 3 | 208 | 1.6 | 9.7 | 0.00 | 0.00 | 0.00 | 58 | 1015.2 |
| 20260507094737 | 3 | 267 | 3.2 | 9.7 | 0.00 | 0.00 | 0.00 | 59 | 1015.2 |
| 20260507094237 | 3 | 255 | 1.6 | 12.9 | 0.00 | 0.00 | 0.00 | 60 | 1015.2 |
| 20260507093737 | 3 | 255 | 4.8 | 12.9 | 0.00 | 0.00 | 0.00 | 61 | 1015.2 |
| 20260507093237 | 2 | 230 | 4.8 | 11.3 | 0.00 | 0.00 | 0.00 | 62 | 1015.2 |
| 20260507092737 | 2 | 198 | 4.8 | 9.7 | 0.00 | 0.00 | 0.00 | 64 | 1015.2 |
| 20260507092237 | 2 | 189 | 3.2 | 9.7 | 0.00 | 0.00 | 0.00 | 65 | 1015.3 |
| 20260507091737 | 2 | 235 | 1.6 | 8.0 | 0.00 | 0.00 | 0.00 | 66 | 1015.3 |
| 20260507091237 | 2 | 220 | 0.0 | 4.8 | 0.00 | 0.00 | 0.00 | 67 | 1015.3 |
| 20260507090737 | 2 | 201 | 1.6 | 6.4 | 0.00 | 0.00 | 0.00 | 67 | 1015.4 |
| 20260507090237 | 2 | 167 | 1.6 | 6.4 | 0.00 | 0.00 | 0.00 | 67 | 1015.3 |
| 20260507085737 | 2 | 177 | 1.6 | 4.8 | 0.00 | 0.00 | 0.00 | 68 | 1015.3 |